createdAt,value
2023-01-30T00:00:18.358Z,5.2
2023-01-30T00:01:31.000Z,5.6
2023-01-30T00:02:50.749Z,5.5
2023-01-30T00:04:06.693Z,5.2
2023-01-30T00:05:23.133Z,5.1
2023-01-30T00:06:39.086Z,5.3
2023-01-30T00:07:55.533Z,5
2023-01-30T00:09:11.477Z,5.4
2023-01-30T00:10:27.674Z,5.6
2023-01-30T00:11:43.869Z,5.2
2023-01-30T00:12:57.000Z,5.5
2023-01-30T00:14:16.528Z,5
2023-01-30T00:15:32.460Z,4.9
2023-01-30T00:16:47.671Z,5.7
2023-01-30T00:18:01.000Z,4.9
2023-01-30T00:19:20.064Z,5
2023-01-30T00:20:33.000Z,5.2
2023-01-30T00:21:49.000Z,4.7
2023-01-30T00:23:08.896Z,5
2023-01-30T00:25:19.279Z,5.3
2023-01-30T00:25:41.299Z,4.9
2023-01-30T00:26:54.000Z,5
2023-01-30T00:28:13.702Z,5.2
2023-01-30T00:29:26.000Z,4.8
2023-01-30T00:30:42.000Z,4.7
2023-01-30T00:31:59.000Z,4.5
2023-01-30T00:33:17.241Z,4.8
2023-01-30T00:34:33.437Z,4.9
2023-01-30T00:35:46.000Z,4.6
2023-01-30T00:37:05.829Z,4.8
2023-01-30T00:38:22.026Z,4.2
2023-01-30T00:39:35.000Z,4.9
2023-01-30T00:40:54.417Z,4.8
2023-01-30T00:42:10.861Z,4.7
2023-01-30T00:43:27.051Z,5.2
2023-01-30T00:44:43.005Z,5.1
2023-01-30T00:45:59.201Z,5
2023-01-30T00:47:15.396Z,5.3
2023-01-30T00:48:32.890Z,5.2
2023-01-30T00:49:46.805Z,5.6
2023-01-30T00:51:03.002Z,5.5
2023-01-30T00:52:16.000Z,5.5
2023-01-30T00:53:35.394Z,5.7
2023-01-30T00:54:51.835Z,5.8
2023-01-30T00:56:04.000Z,6.1
2023-01-30T00:57:21.000Z,6.8
2023-01-30T00:58:37.000Z,6.1
2023-01-30T00:59:53.000Z,6.4
2023-01-30T01:01:12.813Z,5.9
2023-01-30T01:02:28.767Z,6.2
2023-01-30T01:03:44.964Z,5.3
2023-01-30T01:04:58.000Z,6.4
2023-01-30T01:06:16.373Z,6.1
2023-01-30T01:07:32.815Z,5.7
2023-01-30T01:08:49.015Z,6.1
2023-01-30T01:10:04.962Z,6.5
2023-01-30T01:11:21.403Z,6
2023-01-30T01:12:37.354Z,5.1
2023-01-30T01:13:53.794Z,6.3
2023-01-30T01:15:07.000Z,7.1
2023-01-30T01:15:09.747Z,6.1
2023-01-30T01:16:25.943Z,7.2
2023-01-30T01:17:39.000Z,6.9
2023-01-30T01:18:58.336Z,6
2023-01-30T01:21:27.000Z,6.2
2023-01-30T01:22:45.940Z,6.4
2023-01-30T01:24:02.388Z,5.9
2023-01-30T01:25:15.000Z,6.5
2023-01-30T01:26:34.774Z,6.4
2023-01-30T01:27:47.000Z,5.8
2023-01-30T01:29:07.168Z,5.8
2023-01-30T01:30:23.358Z,6.2
2023-01-30T01:31:39.557Z,6.2
2023-01-30T01:32:52.000Z,6.2
2023-01-30T01:34:08.000Z,6
2023-01-30T01:35:28.154Z,6.7
2023-01-30T01:36:41.000Z,6.8
2023-01-30T01:38:00.293Z,5.8
2023-01-30T01:39:15.506Z,7.4
2023-01-30T01:40:31.702Z,6
2023-01-30T01:41:45.000Z,6.2
2023-01-30T01:43:04.094Z,7.6
2023-01-30T01:44:17.000Z,6.3
2023-01-30T01:45:36.487Z,6.5
2023-01-30T01:46:52.932Z,6.1
2023-01-30T01:48:06.000Z,6.3
2023-01-30T01:49:22.000Z,6.6
2023-01-30T01:50:38.000Z,7.6
2023-01-30T01:51:54.000Z,7.7
2023-01-30T01:53:13.666Z,6
2023-01-30T01:54:27.000Z,7.9
2023-01-30T01:55:42.000Z,6.4
2023-01-30T01:56:58.000Z,7.6
2023-01-30T01:58:14.000Z,7.8
2023-01-30T01:59:30.000Z,7.5
2023-01-30T02:00:49.858Z,7.2
2023-01-30T02:02:03.000Z,7.3
2023-01-30T02:03:22.250Z,6.9
2023-01-30T02:04:38.696Z,5.9
2023-01-30T02:05:51.000Z,7.3
2023-01-30T02:07:11.092Z,7.3
2023-01-30T02:08:24.000Z,6.3
2023-01-30T02:09:43.548Z,5.7
2023-01-30T02:10:59.671Z,6.9
2023-01-30T02:12:14.641Z,5.8
2023-01-30T02:13:31.084Z,5.7
2023-01-30T02:14:47.033Z,5.9
2023-01-30T02:16:00.000Z,6.4
2023-01-30T02:16:01.000Z,6.4
2023-01-30T02:17:19.425Z,5.4
2023-01-30T02:18:35.622Z,7.3
2023-01-30T02:19:51.818Z,5.5
2023-01-30T02:22:21.000Z,5.7
2023-01-30T02:23:40.406Z,5.9
2023-01-30T02:24:56.857Z,5.6
2023-01-30T02:26:13.044Z,6
2023-01-30T02:27:26.000Z,6
2023-01-30T02:28:44.000Z,4.8
2023-01-30T02:30:00.404Z,5.2
2023-01-30T02:31:13.000Z,5.3
2023-01-30T02:32:33.045Z,5.4
2023-01-30T02:33:46.000Z,6
2023-01-30T02:35:05.190Z,5.8
2023-01-30T02:36:18.000Z,5.3
2023-01-30T02:37:34.000Z,5.9
2023-01-30T02:38:54.022Z,4.8
2023-01-30T02:40:09.966Z,5.1
2023-01-30T02:41:23.000Z,5.2
2023-01-30T02:42:42.603Z,4.8
2023-01-30T02:43:55.000Z,4.7
2023-01-30T02:45:14.005Z,5.2
2023-01-30T02:46:27.000Z,4.8
2023-01-30T02:47:43.000Z,5.5
2023-01-30T02:48:59.000Z,4.5
2023-01-30T02:50:15.000Z,4.8
2023-01-30T02:51:34.974Z,4.9
2023-01-30T02:52:47.000Z,4.3
2023-01-30T02:54:06.138Z,4.5
2023-01-30T02:55:22.332Z,5
2023-01-30T02:56:38.526Z,5.1
2023-01-30T02:57:54.961Z,4.5
2023-01-30T02:59:11.161Z,4.1
2023-01-30T03:00:24.000Z,5.1
2023-01-30T03:01:40.000Z,4.9
2023-01-30T03:02:56.000Z,4.8
2023-01-30T03:04:12.000Z,5.4
2023-01-30T03:05:29.000Z,4.3
2023-01-30T03:06:45.000Z,4.4
2023-01-30T03:08:04.539Z,4.4
2023-01-30T03:09:16.000Z,4.5
2023-01-30T03:10:35.925Z,4.5
2023-01-30T03:11:49.000Z,4.2
2023-01-30T03:13:05.000Z,4.5
2023-01-30T03:14:21.000Z,4.4
2023-01-30T03:15:40.453Z,4.5
2023-01-30T03:16:53.000Z,4.4
2023-01-30T03:18:13.090Z,4.2
2023-01-30T03:19:29.035Z,4.7
2023-01-30T03:20:45.229Z,5
2023-01-30T03:22:01.666Z,4.6
2023-01-30T03:23:14.000Z,4.3
2023-01-30T03:24:34.203Z,4.8
2023-01-30T03:25:49.262Z,4.2
2023-01-30T03:27:05.214Z,4.6
2023-01-30T03:28:18.000Z,5.2
2023-01-30T03:29:37.850Z,5.5
2023-01-30T03:30:53.796Z,5
2023-01-30T03:32:07.000Z,4.4
2023-01-30T03:33:23.000Z,5.5
2023-01-30T03:34:42.378Z,4.9
2023-01-30T03:35:55.000Z,4.7
2023-01-30T03:37:11.000Z,4.4
2023-01-30T03:38:28.000Z,4.9
2023-01-30T03:39:47.403Z,4.5
2023-01-30T03:41:03.348Z,5.1
2023-01-30T03:42:18.558Z,5.6
2023-01-30T03:43:31.000Z,4.7
2023-01-30T03:44:49.000Z,4.5
2023-01-30T03:44:51.195Z,5.1
2023-01-30T03:46:07.140Z,4
2023-01-30T03:47:20.000Z,4.6
2023-01-30T03:48:39.772Z,4.4
2023-01-30T03:51:09.000Z,4.3
2023-01-30T03:52:28.109Z,4.3
2023-01-30T03:53:44.573Z,4.3
2023-01-30T03:54:57.000Z,4.3
2023-01-30T03:56:13.000Z,4.1
2023-01-30T03:57:30.000Z,4.5
2023-01-30T03:58:49.327Z,4.5
2023-01-30T04:00:04.536Z,3.7
2023-01-30T04:01:17.000Z,3.7
2023-01-30T04:02:33.000Z,4.6
2023-01-30T04:03:53.124Z,4
2023-01-30T04:05:09.314Z,3.8
2023-01-30T04:06:22.000Z,5.2
2023-01-30T04:07:38.000Z,4
2023-01-30T04:08:54.000Z,3.6
2023-01-30T04:10:10.000Z,4
2023-01-30T04:11:30.285Z,3.5
2023-01-30T04:12:46.229Z,3.5
2023-01-30T04:13:59.000Z,4
2023-01-30T04:15:18.867Z,3.7
2023-01-30T04:16:30.000Z,3.7
2023-01-30T04:17:50.022Z,3.2
2023-01-30T04:19:03.000Z,3.2
2023-01-30T04:20:22.654Z,3.2
2023-01-30T04:21:38.862Z,3.2
2023-01-30T04:22:55.045Z,3.2
2023-01-30T04:24:08.000Z,3.3
2023-01-30T04:25:24.000Z,2.9
2023-01-30T04:26:40.000Z,3
2023-01-30T04:27:56.000Z,3.1
2023-01-30T04:29:12.000Z,3.5
2023-01-30T04:30:32.209Z,3.9
2023-01-30T04:31:45.000Z,2.9
2023-01-30T04:33:03.608Z,3.5
2023-01-30T04:34:19.803Z,2.9
2023-01-30T04:35:35.754Z,3.4
2023-01-30T04:36:49.084Z,3.1
2023-01-30T04:38:05.000Z,3.4
2023-01-30T04:39:21.000Z,3.8
2023-01-30T04:40:37.000Z,3.4
2023-01-30T04:41:53.000Z,3.6
2023-01-30T04:43:13.160Z,3.4
2023-01-30T04:44:26.000Z,3.2
2023-01-30T04:44:26.000Z,3.1
2023-01-30T04:45:42.000Z,3.2
2023-01-30T04:47:01.747Z,3.9
2023-01-30T04:48:17.693Z,3
2023-01-30T04:50:46.000Z,3.5
2023-01-30T04:52:02.000Z,3.1
2023-01-30T04:53:18.000Z,3.1
2023-01-30T04:54:34.000Z,3.5
2023-01-30T04:55:51.000Z,3
2023-01-30T04:57:10.066Z,3.1
2023-01-30T04:58:23.000Z,3.2
2023-01-30T04:59:39.000Z,3.1
2023-01-30T05:00:55.000Z,3.3
2023-01-30T05:02:11.000Z,3.2
2023-01-30T05:03:31.035Z,3.1
2023-01-30T05:04:47.477Z,2.9
2023-01-30T05:06:02.439Z,2.6
2023-01-30T05:07:15.000Z,3
2023-01-30T05:08:31.000Z,3.1
2023-01-30T05:09:48.000Z,3.1
2023-01-30T05:11:07.462Z,3.2
2023-01-30T05:12:23.659Z,3.4
2023-01-30T05:13:39.848Z,2.9
2023-01-30T05:14:56.051Z,3.1
2023-01-30T05:16:51.908Z,2.9
2023-01-30T05:17:25.000Z,3.3
2023-01-30T05:18:41.000Z,2.9
2023-01-30T05:20:00.816Z,3.1
2023-01-30T05:21:17.009Z,2.9
2023-01-30T05:22:32.220Z,2.9
2023-01-30T05:23:48.426Z,3.1
2023-01-30T05:25:01.000Z,2.9
2023-01-30T05:26:17.000Z,3.3
2023-01-30T05:27:36.998Z,3
2023-01-30T05:28:50.000Z,3.1
2023-01-30T05:30:06.000Z,3.5
2023-01-30T05:31:25.333Z,3.6
2023-01-30T05:32:41.817Z,3.8
2023-01-30T05:33:57.969Z,3.2
2023-01-30T05:35:14.166Z,3.5
2023-01-30T05:36:30.350Z,3.2
2023-01-30T05:37:46.555Z,3.7
2023-01-30T05:39:01.000Z,3.3
2023-01-30T05:40:17.959Z,3.6
2023-01-30T05:41:34.155Z,4.6
2023-01-30T05:42:50.353Z,4
2023-01-30T05:44:03.000Z,4.2
2023-01-30T05:45:19.000Z,3.7
2023-01-30T05:46:38.676Z,3.6
2023-01-30T05:47:52.000Z,4.2
2023-01-30T05:49:08.000Z,4.1
2023-01-30T05:50:27.501Z,3.9
2023-01-30T05:51:40.000Z,4.1
2023-01-30T05:52:59.644Z,4.1
2023-01-30T05:54:59.559Z,4
2023-01-30T05:55:31.048Z,4.6
2023-01-30T05:56:44.000Z,4.3
2023-01-30T05:56:45.000Z,5
2023-01-30T05:58:00.000Z,4.6
2023-01-30T05:59:16.000Z,4.6
2023-01-30T06:00:36.067Z,5.3
2023-01-30T06:03:08.211Z,4.7
2023-01-30T06:04:22.000Z,4.4
2023-01-30T06:04:24.404Z,4.7
2023-01-30T06:05:40.841Z,4.2
2023-01-30T06:07:21.446Z,4.5
2023-01-30T06:08:12.985Z,5.4
2023-01-30T06:10:45.621Z,4.7
2023-01-30T06:11:57.000Z,5.1
2023-01-30T06:13:17.018Z,4.8
2023-01-30T06:14:33.582Z,4.7
2023-01-30T06:15:49.164Z,4.5
2023-01-30T06:17:05.357Z,4
2023-01-30T06:18:21.552Z,4
2023-01-30T06:19:34.000Z,4.3
2023-01-30T06:20:53.940Z,4
2023-01-30T06:22:10.375Z,3.7
2023-01-30T06:23:26.327Z,4.1
2023-01-30T06:24:53.082Z,3.7
2023-01-30T06:25:55.000Z,3.7
2023-01-30T06:27:12.000Z,4
2023-01-30T06:28:30.362Z,4.7
2023-01-30T06:30:00.848Z,3.1
2023-01-30T06:31:02.507Z,3.6
2023-01-30T06:32:18.945Z,3
2023-01-30T06:33:32.000Z,2.7
2023-01-30T06:34:48.000Z,3.1
2023-01-30T06:36:07.525Z,3.2
2023-01-30T06:37:23.476Z,2.6
2023-01-30T06:38:39.670Z,2.5
2023-01-30T06:39:55.864Z,2.6
2023-01-30T06:41:12.300Z,2.3
2023-01-30T06:42:28.251Z,2.2
2023-01-30T06:43:44.689Z,2.3
2023-01-30T06:45:00.639Z,2.1
2023-01-30T06:46:12.000Z,2.1
2023-01-30T06:47:29.000Z,2.2
2023-01-30T06:48:48.236Z,1.9
2023-01-30T06:50:04.676Z,2
2023-01-30T06:51:20.878Z,1.9
2023-01-30T06:52:33.000Z,1.9
2023-01-30T06:53:53.013Z,1.8
2023-01-30T06:55:09.206Z,1.9
2023-01-30T06:56:22.000Z,2
2023-01-30T06:57:41.594Z,2
2023-01-30T06:58:58.033Z,1.8
2023-01-30T07:00:11.000Z,1.5
2023-01-30T07:01:30.176Z,1.6
2023-01-30T07:02:42.000Z,1.4
2023-01-30T07:03:58.000Z,1.6
2023-01-30T07:05:18.036Z,1.5
2023-01-30T07:06:34.223Z,1.3
2023-01-30T07:07:49.437Z,1.5
2023-01-30T07:09:05.635Z,1.4
2023-01-30T07:10:18.000Z,1.2
2023-01-30T07:11:34.000Z,1.2
2023-01-30T07:12:51.000Z,1.3
2023-01-30T07:14:07.000Z,1.5
2023-01-30T07:16:20.647Z,1.1
2023-01-30T07:16:39.000Z,1.1
2023-01-30T07:17:55.000Z,1.1
2023-01-30T07:19:14.927Z,1
2023-01-30T07:20:28.000Z,1
2023-01-30T07:21:47.561Z,0.9
2023-01-30T07:23:00.000Z,1.2
2023-01-30T07:24:18.719Z,1
2023-01-30T07:25:32.000Z,1
2023-01-30T07:26:48.000Z,0.9
2023-01-30T07:28:07.301Z,1.2
2023-01-30T07:29:20.000Z,1.5
2023-01-30T07:30:39.689Z,1
2023-01-30T07:31:55.882Z,1
2023-01-30T07:33:12.076Z,1
2023-01-30T07:34:28.270Z,0.9
2023-01-30T07:35:44.463Z,1.1
2023-01-30T07:37:00.906Z,1
2023-01-30T07:38:13.000Z,0.9
2023-01-30T07:39:33.044Z,1
2023-01-30T07:40:48.254Z,1.2
2023-01-30T07:42:04.693Z,0.7
2023-01-30T07:43:20.642Z,1.1
2023-01-30T07:44:36.835Z,0.9
2023-01-30T07:45:53.029Z,0.6
2023-01-30T07:47:09.489Z,0.7
2023-01-30T07:48:25.417Z,0.8
2023-01-30T07:49:41.611Z,1.8
2023-01-30T07:50:54.000Z,0.8
2023-01-30T07:52:14.239Z,0.5
2023-01-30T07:53:27.000Z,0.6
2023-01-30T07:54:46.386Z,1.3
2023-01-30T07:56:02.580Z,0.6
2023-01-30T07:57:18.038Z,0.5
2023-01-30T07:58:33.984Z,0.6
2023-01-30T07:59:50.423Z,0.5
2023-01-30T08:01:06.371Z,0.7
2023-01-30T08:02:19.000Z,0.5
2023-01-30T08:03:38.759Z,0.7
2023-01-30T08:04:52.000Z,0.4
2023-01-30T08:06:11.146Z,0.9
2023-01-30T08:07:24.000Z,0.6
2023-01-30T08:08:43.533Z,0.6
2023-01-30T08:09:59.727Z,0.6
2023-01-30T08:11:15.921Z,0.9
2023-01-30T08:12:29.000Z,0.5
2023-01-30T08:13:44.000Z,0.6
2023-01-30T08:15:03.518Z,0.8
2023-01-30T08:16:16.000Z,0.8
2023-01-30T08:17:35.905Z,0.9
2023-01-30T08:18:52.000Z,0.7
2023-01-30T08:20:08.294Z,0.5
2023-01-30T08:21:24.764Z,0.6
2023-01-30T08:22:40.934Z,0.8
2023-01-30T08:23:56.875Z,0.9
2023-01-30T08:25:13.068Z,0.7
2023-01-30T08:26:26.000Z,0.7
2023-01-30T08:27:42.000Z,0.9
2023-01-30T08:29:01.649Z,0.7
2023-01-30T08:30:13.000Z,0.9
2023-01-30T08:31:33.000Z,1.1
2023-01-30T08:32:46.000Z,1.1
2023-01-30T08:34:05.441Z,1.1
2023-01-30T08:35:21.635Z,1.1
2023-01-30T08:36:37.829Z,0.8
2023-01-30T08:37:54.274Z,1.8
2023-01-30T08:39:10.216Z,1.1
2023-01-30T08:40:26.661Z,1.5
2023-01-30T08:41:42.603Z,1.3
2023-01-30T08:42:55.000Z,1.6
2023-01-30T08:44:56.831Z,1.3
2023-01-30T08:45:31.439Z,1.3
2023-01-30T08:46:46.394Z,1.5
2023-01-30T08:48:02.837Z,2
2023-01-30T08:49:18.000Z,2.2
2023-01-30T08:50:34.976Z,2.9
2023-01-30T08:51:48.000Z,1.8
2023-01-30T08:53:07.607Z,4
2023-01-30T08:54:20.000Z,2.6
2023-01-30T08:55:39.751Z,2.5
2023-01-30T08:56:55.945Z,2.8
2023-01-30T08:58:12.139Z,2.8
2023-01-30T08:59:28.333Z,3
2023-01-30T09:00:44.776Z,3.3
2023-01-30T09:02:00.720Z,3
2023-01-30T09:03:15.930Z,3.3
2023-01-30T09:04:32.125Z,5.5
2023-01-30T09:05:48.318Z,3.4
2023-01-30T09:07:01.000Z,5.5
2023-01-30T09:08:20.947Z,5
2023-01-30T09:09:36.000Z,6.1
2023-01-30T09:10:53.336Z,4.8
2023-01-30T09:12:06.000Z,7.2
2023-01-30T09:13:25.480Z,6.5
2023-01-30T09:14:41.918Z,5.4
2023-01-30T09:15:57.867Z,8.3
2023-01-30T09:17:55.730Z,6.4
2023-01-30T09:18:27.000Z,8
2023-01-30T09:19:46.448Z,5.5
2023-01-30T09:20:58.000Z,5
2023-01-30T09:22:17.000Z,6.9
2023-01-30T09:23:34.292Z,6.6
2023-01-30T09:25:07.866Z,9.7
2023-01-30T09:26:06.682Z,7
2023-01-30T09:27:22.627Z,10.5
2023-01-30T09:28:39.076Z,7.8
2023-01-30T09:29:55.015Z,8.9
2023-01-30T09:31:11.208Z,8.3
2023-01-30T09:32:27.402Z,8.5
2023-01-30T09:33:43.865Z,9.5
2023-01-30T09:35:26.364Z,6.9
2023-01-30T09:36:15.984Z,8.1
2023-01-30T09:37:31.194Z,7.5
2023-01-30T09:40:01.000Z,5.7
2023-01-30T09:40:03.582Z,5.8
2023-01-30T09:41:20.038Z,9.4
2023-01-30T09:42:35.970Z,12.8
2023-01-30T09:43:52.163Z,8.4
2023-01-30T09:46:21.000Z,5.7
2023-01-30T09:47:40.000Z,8.4
2023-01-30T09:48:56.938Z,8.9
2023-01-30T09:50:13.132Z,10.8
2023-01-30T09:51:29.325Z,6.9
2023-01-30T09:52:42.000Z,8.5
2023-01-30T09:54:01.005Z,6.7
2023-01-30T09:56:00.393Z,8.6
2023-01-30T09:56:33.116Z,5.9
2023-01-30T09:57:49.559Z,7.7
2023-01-30T09:59:05.504Z,7.2
2023-01-30T10:00:21.000Z,10.3
2023-01-30T10:01:38.141Z,8.4
2023-01-30T10:02:54.085Z,7.8
2023-01-30T10:04:10.279Z,7.4
2023-01-30T10:05:23.000Z,5
2023-01-30T10:05:26.473Z,7.1
2023-01-30T10:06:39.000Z,5.8
2023-01-30T10:07:58.860Z,8
2023-01-30T10:09:15.309Z,5.9
2023-01-30T10:11:46.458Z,3.3
2023-01-30T10:13:32.029Z,5.9
2023-01-30T10:14:18.845Z,6
2023-01-30T10:15:32.000Z,6.2
2023-01-30T10:16:51.478Z,7.9
2023-01-30T10:18:07.427Z,7.2
2023-01-30T10:19:23.620Z,7.2
2023-01-30T10:20:39.814Z,7
2023-01-30T10:21:53.000Z,6.3
2023-01-30T10:23:12.201Z,6.9
2023-01-30T10:24:28.652Z,4.9
2023-01-30T10:25:44.589Z,6.4
2023-01-30T10:26:59.799Z,5.9
2023-01-30T10:28:15.000Z,7.1
2023-01-30T10:30:06.707Z,6.6
2023-01-30T10:30:45.000Z,7.4
2023-01-30T10:32:04.574Z,4.8
2023-01-30T10:33:17.000Z,6.6
2023-01-30T10:34:37.215Z,6.3
2023-01-30T10:35:50.000Z,7.3
2023-01-30T10:37:20.828Z,7.9
2023-01-30T10:38:53.016Z,6.1
2023-01-30T10:39:41.979Z,8.9
2023-01-30T10:40:57.929Z,5.4
2023-01-30T10:42:30.577Z,6.8
2023-01-30T10:43:27.000Z,8.3
2023-01-30T10:44:00.782Z,5.2
2023-01-30T10:44:42.000Z,6.3
2023-01-30T10:44:43.000Z,9.1
2023-01-30T10:46:01.721Z,5.6
2023-01-30T10:47:18.165Z,5.5
2023-01-30T10:51:03.000Z,8.2
2023-01-30T10:52:22.932Z,7.3
2023-01-30T10:53:35.000Z,9.3
2023-01-30T10:54:55.341Z,7.9
2023-01-30T10:56:24.650Z,6.2
2023-01-30T10:57:27.464Z,8.5
2023-01-30T10:58:43.909Z,5.9
2023-01-30T10:59:59.112Z,7.4
2023-01-30T11:01:15.061Z,5.8
2023-01-30T11:02:31.254Z,8.1
2023-01-30T11:04:36.792Z,5.1
2023-01-30T11:05:03.892Z,6.9
2023-01-30T11:06:19.837Z,5.7
2023-01-30T11:07:33.000Z,4.9
2023-01-30T11:08:49.000Z,9.6
2023-01-30T11:10:08.417Z,7.4
2023-01-30T11:11:50.914Z,6
2023-01-30T11:12:40.805Z,6.3
2023-01-30T11:13:54.000Z,6.9
2023-01-30T11:15:13.441Z,9.6
2023-01-30T11:17:00.663Z,7.2
2023-01-30T11:19:03.051Z,7.1
2023-01-30T11:21:30.000Z,11.1
2023-01-30T11:22:45.000Z,7.4
2023-01-30T11:24:01.000Z,5.8
2023-01-30T11:25:21.031Z,5.6
2023-01-30T11:26:34.000Z,9.1
2023-01-30T11:27:50.000Z,6.3
2023-01-30T11:29:20.572Z,6.2
2023-01-30T11:30:23.000Z,5.7
2023-01-30T11:30:25.804Z,5.1
2023-01-30T11:31:41.750Z,6.8
2023-01-30T11:32:57.943Z,5.6
2023-01-30T11:34:14.137Z,7.5
2023-01-30T11:36:46.957Z,8.1
2023-01-30T11:37:59.000Z,5.1
2023-01-30T11:39:16.000Z,4.9
2023-01-30T11:40:32.000Z,5.1
2023-01-30T11:42:42.462Z,6.2
2023-01-30T11:43:06.510Z,4.4
2023-01-30T11:44:46.834Z,6.6
2023-01-30T11:45:39.140Z,5.5
2023-01-30T11:46:55.334Z,7.8
2023-01-30T11:48:11.540Z,7.7
2023-01-30T11:49:24.000Z,6.4
2023-01-30T11:50:40.000Z,6.8
2023-01-30T11:51:59.866Z,7.8
2023-01-30T11:53:16.059Z,6.5
2023-01-30T11:55:06.332Z,5.3
2023-01-30T11:55:48.692Z,4.7
2023-01-30T11:57:01.000Z,4.5
2023-01-30T11:58:20.834Z,7.6
2023-01-30T11:59:33.000Z,7.1
2023-01-30T11:59:33.000Z,8.7
2023-01-30T12:00:49.000Z,7.1
2023-01-30T12:02:18.469Z,7.5
2023-01-30T12:03:24.875Z,5.6
2023-01-30T12:05:57.259Z,7.7
2023-01-30T12:07:28.216Z,4.8
2023-01-30T12:08:29.401Z,6.9
2023-01-30T12:10:32.595Z,8.4
2023-01-30T12:11:01.791Z,5.7
2023-01-30T12:12:18.233Z,8.4
2023-01-30T12:13:34.180Z,8.9
2023-01-30T12:15:42.348Z,11
2023-01-30T12:16:02.000Z,10.4
2023-01-30T12:17:22.030Z,8.3
2023-01-30T12:18:37.978Z,6.5
2023-01-30T12:20:50.121Z,7.9
2023-01-30T12:21:10.367Z,6.8
2023-01-30T12:22:26.808Z,6.5
2023-01-30T12:23:42.759Z,6.4
2023-01-30T12:24:56.000Z,9.5
2023-01-30T12:24:59.201Z,7.1
2023-01-30T12:26:15.413Z,9.3
2023-01-30T12:27:31.343Z,5.3
2023-01-30T12:28:47.797Z,7.7
2023-01-30T12:31:17.000Z,8
2023-01-30T12:32:32.000Z,7.6
2023-01-30T12:33:51.586Z,8.6
2023-01-30T12:35:07.779Z,10.3
2023-01-30T12:36:20.000Z,6
2023-01-30T12:38:20.778Z,6.2
2023-01-30T12:38:56.119Z,7.5
2023-01-30T12:40:09.000Z,6.9
2023-01-30T12:41:28.761Z,6.2
2023-01-30T12:42:41.000Z,8.8
2023-01-30T12:43:57.000Z,5.9
2023-01-30T12:45:35.910Z,9.3
2023-01-30T12:46:30.000Z,5.8
2023-01-30T12:48:40.290Z,9.6
2023-01-30T12:49:04.700Z,9.7
2023-01-30T12:50:21.142Z,8.4
2023-01-30T12:51:34.000Z,7.5
2023-01-30T12:53:48.062Z,8.3
2023-01-30T12:54:06.000Z,7
2023-01-30T12:55:25.925Z,9.8
2023-01-30T12:56:42.126Z,7.8
2023-01-30T12:57:58.310Z,10.8
2023-01-30T12:59:14.510Z,9.1
2023-01-30T13:01:02.195Z,6.7
2023-01-30T13:01:46.656Z,8.4
2023-01-30T13:03:06.565Z,5.8
2023-01-30T13:04:19.295Z,8.3
2023-01-30T13:05:35.242Z,8.7
2023-01-30T13:06:50.703Z,9.5
2023-01-30T13:08:03.000Z,7
2023-01-30T13:09:19.000Z,8.7
2023-01-30T13:11:18.718Z,8.3
2023-01-30T13:11:55.236Z,6
2023-01-30T13:13:11.432Z,9.5
2023-01-30T13:14:27.628Z,4.7
2023-01-30T13:15:40.000Z,9.9
2023-01-30T13:17:00.019Z,8.2
2023-01-30T13:18:13.000Z,9.7
2023-01-30T13:19:32.410Z,8.5
2023-01-30T13:20:48.851Z,8.9
2023-01-30T13:22:05.065Z,7.6
2023-01-30T13:23:40.623Z,8.4
2023-01-30T13:24:33.000Z,9.1
2023-01-30T13:25:52.404Z,6.8
2023-01-30T13:27:08.600Z,9.3
2023-01-30T13:28:24.796Z,8.6
2023-01-30T13:29:38.000Z,8.9
2023-01-30T13:30:57.187Z,6.8
2023-01-30T13:32:27.946Z,8.9
2023-01-30T13:33:29.819Z,9.7
2023-01-30T13:34:45.774Z,8.6
2023-01-30T13:35:59.000Z,7.3
2023-01-30T13:37:18.412Z,7.5
2023-01-30T13:38:34.361Z,7.9
2023-01-30T13:39:47.000Z,10.5
2023-01-30T13:41:12.285Z,7.5
2023-01-30T13:42:21.964Z,6.7
2023-01-30T13:43:35.000Z,8.6
2023-01-30T13:44:54.620Z,7.7
2023-01-30T13:46:10.803Z,9.7
2023-01-30T13:47:26.747Z,5.4
2023-01-30T13:49:26.423Z,9.1
2023-01-30T13:49:59.138Z,6.4
2023-01-30T13:51:15.582Z,7.6
2023-01-30T13:52:31.530Z,10.9
2023-01-30T13:53:44.000Z,8.2
2023-01-30T13:55:04.176Z,8
2023-01-30T13:56:17.000Z,8.4
2023-01-30T13:57:35.328Z,9.8
2023-01-30T13:58:48.000Z,8.9
2023-01-30T14:00:04.000Z,8.6
2023-01-30T14:01:21.000Z,7.7
2023-01-30T14:02:40.110Z,7.2
2023-01-30T14:03:53.000Z,10.1
2023-01-30T14:05:12.501Z,8.3
2023-01-30T14:06:25.000Z,10
2023-01-30T14:07:44.893Z,9.8
2023-01-30T14:08:58.000Z,11.1
2023-01-30T14:10:17.545Z,7.9
2023-01-30T14:14:12.211Z,9.2
2023-01-30T14:19:08.000Z,7.7
2023-01-30T14:22:59.240Z,7.4
2023-01-30T14:25:30.659Z,8.5
2023-01-30T14:26:42.000Z,7.6
2023-01-30T14:28:02.066Z,8.7
2023-01-30T14:29:14.000Z,10.1
2023-01-30T14:30:32.500Z,9.2
2023-01-30T14:31:44.000Z,9
2023-01-30T14:33:00.000Z,6.6
2023-01-30T14:34:18.155Z,6.5
2023-01-30T14:35:33.625Z,9.2
2023-01-30T14:36:49.811Z,9.3
2023-01-30T14:38:02.000Z,9.5
2023-01-30T14:39:19.000Z,9.6
2023-01-30T14:40:35.000Z,5.5
2023-01-30T14:41:54.344Z,7.8
2023-01-30T14:43:10.540Z,11.8
2023-01-30T14:44:26.735Z,7.3
2023-01-30T14:45:43.176Z,9.4
2023-01-30T14:46:56.000Z,6.9
2023-01-30T14:48:11.000Z,9.7
2023-01-30T14:49:26.000Z,8.4
2023-01-30T14:50:45.757Z,9.8
2023-01-30T14:52:02.200Z,9.7
2023-01-30T14:53:15.000Z,10.7
2023-01-30T14:54:34.595Z,10
2023-01-30T14:55:47.000Z,9.7
2023-01-30T14:57:06.735Z,6.3
2023-01-30T14:58:22.931Z,7.5
2023-01-30T14:59:39.126Z,6.7
2023-01-30T15:00:55.323Z,10.2
2023-01-30T15:02:08.000Z,9.6
2023-01-30T15:03:24.000Z,9.1
2023-01-30T15:04:43.909Z,10.4
2023-01-30T15:05:59.121Z,9.5
2023-01-30T15:07:12.000Z,7.6
2023-01-30T15:08:31.513Z,10.9
2023-01-30T15:09:44.000Z,8.7
2023-01-30T15:11:03.904Z,9
2023-01-30T15:12:17.000Z,6.5
2023-01-30T15:13:36.596Z,13.9
2023-01-30T15:14:49.000Z,11.3
2023-01-30T15:16:04.000Z,7.4
2023-01-30T15:17:22.925Z,9.2
2023-01-30T15:18:38.147Z,9.4
2023-01-30T15:19:53.358Z,11.4
2023-01-30T15:21:09.803Z,9
2023-01-30T15:22:22.000Z,5.3
2023-01-30T15:23:42.191Z,9.8
2023-01-30T15:24:55.000Z,8.2
2023-01-30T15:26:11.000Z,9.5
2023-01-30T15:27:27.000Z,9.7
2023-01-30T15:28:46.728Z,8.6
2023-01-30T15:30:00.000Z,9
2023-01-30T15:31:19.369Z,6.9
2023-01-30T15:32:35.315Z,10.4
2023-01-30T15:33:51.511Z,6.3
2023-01-30T15:35:04.000Z,10.9
2023-01-30T15:36:19.000Z,11.2
2023-01-30T15:37:38.135Z,11.8
2023-01-30T15:38:54.331Z,6.6
2023-01-30T15:40:07.000Z,7.9
2023-01-30T15:41:23.000Z,10.7
2023-01-30T15:42:42.918Z,7.7
2023-01-30T15:43:59.367Z,8.5
2023-01-30T15:45:29.200Z,8.8
2023-01-30T15:46:26.000Z,7.7
2023-01-30T15:47:42.000Z,9
2023-01-30T15:49:01.210Z,6.8
2023-01-30T15:50:33.016Z,10.2
2023-01-30T15:51:32.624Z,9.4
2023-01-30T15:52:48.569Z,11.4
2023-01-30T15:54:04.765Z,9.1
2023-01-30T15:55:41.774Z,7.9
2023-01-30T15:56:34.000Z,6.2
2023-01-30T15:57:50.000Z,11.3
2023-01-30T15:59:09.547Z,9.1
2023-01-30T16:00:25.743Z,7.4
2023-01-30T16:01:41.939Z,8
2023-01-30T16:02:55.000Z,10.1
2023-01-30T16:04:14.578Z,11.7
2023-01-30T16:05:30.771Z,11.2
2023-01-30T16:06:42.000Z,7.6
2023-01-30T16:07:59.000Z,9.6
2023-01-30T16:09:18.129Z,12.9
2023-01-30T16:11:09.059Z,8.3
2023-01-30T16:11:47.000Z,10.8
2023-01-30T16:13:02.000Z,8.9
2023-01-30T16:13:06.716Z,7.7
2023-01-30T16:14:22.912Z,10.1
2023-01-30T16:15:35.000Z,8.8
2023-01-30T16:16:53.586Z,13.1
2023-01-30T16:19:25.987Z,9.9
2023-01-30T16:20:40.958Z,10.8
2023-01-30T16:21:56.410Z,13
2023-01-30T16:23:12.365Z,11.3
2023-01-30T16:24:25.000Z,8.2
2023-01-30T16:25:41.000Z,12.3
2023-01-30T16:27:01.198Z,10.5
2023-01-30T16:28:14.000Z,8.7
2023-01-30T16:29:30.000Z,10.4
2023-01-30T16:30:46.000Z,12
2023-01-30T16:32:05.735Z,10
2023-01-30T16:33:21.931Z,10.6
2023-01-30T16:34:35.000Z,11.2
2023-01-30T16:35:54.322Z,8.5
2023-01-30T16:37:10.790Z,13
2023-01-30T16:38:25.729Z,9.3
2023-01-30T16:39:38.000Z,9.6
2023-01-30T16:40:58.121Z,12
2023-01-30T16:42:28.885Z,9.1
2023-01-30T16:43:30.512Z,14.3
2023-01-30T16:44:46.708Z,12.4
2023-01-30T16:46:02.904Z,11.3
2023-01-30T16:47:18.127Z,9.9
2023-01-30T16:48:33.588Z,10.8
2023-01-30T16:49:49.794Z,10.9
2023-01-30T16:51:02.000Z,12
2023-01-30T16:52:18.000Z,10
2023-01-30T16:53:35.000Z,12.6
2023-01-30T16:54:51.000Z,8.4
2023-01-30T16:56:10.512Z,10.8
2023-01-30T16:57:26.955Z,12
2023-01-30T16:59:25.387Z,9.7
2023-01-30T16:59:59.349Z,13.7
2023-01-30T17:01:15.295Z,12.5
2023-01-30T17:02:31.492Z,10
2023-01-30T17:03:44.000Z,12
2023-01-30T17:03:44.000Z,8.4
2023-01-30T17:04:59.000Z,10.7
2023-01-30T17:06:38.538Z,10.1
2023-01-30T17:07:35.293Z,12.5
2023-01-30T17:10:07.928Z,11.5
2023-01-30T17:11:20.000Z,11.2
2023-01-30T17:12:40.323Z,11.5
2023-01-30T17:13:53.000Z,9.5
2023-01-30T17:15:11.741Z,9.5
2023-01-30T17:16:26.960Z,7.4
2023-01-30T17:17:37.000Z,11.8
2023-01-30T17:17:38.000Z,10.8
2023-01-30T17:18:58.124Z,13.6
2023-01-30T17:20:10.000Z,12.2
2023-01-30T17:21:28.810Z,11.9
2023-01-30T17:22:42.000Z,12.5
2023-01-30T17:24:01.194Z,9.7
2023-01-30T17:25:17.390Z,11.4
2023-01-30T17:26:33.590Z,10.4
2023-01-30T17:29:05.734Z,9.5
2023-01-30T17:30:22.187Z,9
2023-01-30T17:31:35.000Z,15.6
2023-01-30T17:32:54.567Z,10.1
2023-01-30T17:34:07.000Z,8.1
2023-01-30T17:35:26.715Z,12.9
2023-01-30T17:37:25.196Z,9.3
2023-01-30T17:37:55.000Z,12.7
2023-01-30T17:39:14.319Z,10.6
2023-01-30T17:40:27.000Z,9.4
2023-01-30T17:41:43.000Z,11.1
2023-01-30T17:41:43.000Z,7.4
2023-01-30T17:43:03.163Z,10.6